Time;durP1;ratioP1;P1;durP2;ratioP2;P2;SDS_P1;SDS_P2;PMS_P1;PMS_P2;Temp;Humidity;BMP_temperature;BMP_pressure;BME280_temperature;BME280_humidity;BME280_pressure;Samples;Min_cycle;Max_cycle;Signal;HPM_P1;HPM_P2
2023/09/06 00:01:59;;;;;;;8.63;2.92;;;;;;;;;;5038409;28;20191;-63
2023/09/06 00:04:26;;;;;;;4.97;1.67;;;;;;;;;;5044454;28;20056;-64
2023/09/06 00:06:53;;;;;;;4.00;1.52;;;;;;;;;;5048692;28;20049;-63
2023/09/06 00:09:20;;;;;;;4.65;1.85;;;;;;;;;;5053133;28;20131;-64
2023/09/06 00:11:48;;;;;;;5.55;1.70;;;;;;;;;;5034879;28;20119;-64
2023/09/06 00:14:15;;;;;;;2.85;1.40;;;;;;;;;;5016929;28;20168;-65
2023/09/06 00:16:42;;;;;;;4.85;1.60;;;;;;;;;;5020826;28;20059;-65
2023/09/06 00:19:08;;;;;;;4.50;1.70;;;;;;;;;;5021181;28;20120;-66
2023/09/06 00:21:40;;;;;;;4.25;1.63;;;;;;;;;;5040347;28;20087;-64
2023/09/06 00:24:07;;;;;;;4.50;1.70;;;;;;;;;;5019937;28;20045;-63
2023/09/06 00:26:34;;;;;;;4.03;1.58;;;;;;;;;;5029904;28;20053;-65
2023/09/06 00:29:02;;;;;;;3.72;1.70;;;;;;;;;;5041465;28;20140;-64
2023/09/06 00:31:29;;;;;;;3.63;1.85;;;;;;;;;;5058945;28;20226;-63
2023/09/06 00:33:56;;;;;;;4.05;1.77;;;;;;;;;;5041253;28;20114;-64
2023/09/06 00:36:22;;;;;;;4.22;1.80;;;;;;;;;;5048988;28;20170;-64
2023/09/06 00:38:49;;;;;;;5.57;1.80;;;;;;;;;;5061340;28;20129;-64
2023/09/06 00:41:16;;;;;;;3.90;1.75;;;;;;;;;;5061594;28;20093;-64
2023/09/06 00:43:42;;;;;;;6.40;1.83;;;;;;;;;;5059788;28;20048;-63
2023/09/06 00:46:11;;;;;;;6.07;1.83;;;;;;;;;;5040582;28;20120;-64
2023/09/06 00:48:37;;;;;;;;;;;;;;;;;;5041409;28;20174;-64
2023/09/06 00:51:06;;;;;;;8.43;1.70;;;;;;;;;;5039940;28;19986;-64
2023/09/06 00:53:33;;;;;;;4.53;1.80;;;;;;;;;;5021100;28;20068;-64
2023/09/06 00:56:02;;;;;;;6.25;1.67;;;;;;;;;;5017523;28;20056;-64
2023/09/06 00:58:30;;;;;;;3.78;1.65;;;;;;;;;;5049102;28;20052;-64
2023/09/06 01:00:57;;;;;;;2.97;1.55;;;;;;;;;;5053803;28;20060;-63
2023/09/06 01:03:25;;;;;;;4.57;1.98;;;;;;;;;;5038587;28;20056;-65
2023/09/06 01:05:59;;;;;;;3.15;1.67;;;;;;;;;;5034935;28;20118;-64
2023/09/06 01:08:32;;;;;;;3.55;1.77;;;;;;;;;;5030296;28;20084;-64
2023/09/06 01:11:14;;;;;;;6.95;1.75;;;;;;;;;;5042690;28;20056;-63
2023/09/06 01:13:41;;;;;;;5.45;1.92;;;;;;;;;;5041075;28;20060;-64
2023/09/06 01:16:08;;;;;;;3.97;1.80;;;;;;;;;;5052505;28;20076;-64
2023/09/06 01:18:36;;;;;;;2.42;1.45;;;;;;;;;;5056756;28;20048;-64
2023/09/06 01:21:10;;;;;;;4.78;1.90;;;;;;;;;;5059452;28;20052;-64
2023/09/06 01:23:40;;;;;;;3.47;1.60;;;;;;;;;;5040913;28;20334;-64
2023/09/06 01:26:07;;;;;;;5.55;2.03;;;;;;;;;;5039939;28;20052;-64
2023/09/06 01:28:35;;;;;;;8.25;1.85;;;;;;;;;;5055410;28;20064;-64
2023/09/06 01:31:02;;;;;;;4.63;1.95;;;;;;;;;;5059722;28;20060;-64
2023/09/06 01:33:29;;;;;;;3.78;1.77;;;;;;;;;;5060787;28;20076;-64
2023/09/06 01:35:56;;;;;;;4.43;2.00;;;;;;;;;;5036251;28;20060;-63
2023/09/06 01:38:23;;;;;;;4.75;1.70;;;;;;;;;;5034851;28;20136;-63
2023/09/06 01:40:53;;;;;;;3.90;1.58;;;;;;;;;;5061215;28;20058;-63
2023/09/06 01:43:19;;;;;;;11.43;2.00;;;;;;;;;;5056182;28;20149;-63
2023/09/06 01:45:50;;;;;;;5.60;2.00;;;;;;;;;;5034695;28;20067;-64
2023/09/06 01:48:17;;;;;;;3.50;1.88;;;;;;;;;;5050180;28;20212;-64
2023/09/06 01:50:44;;;;;;;5.57;1.98;;;;;;;;;;5056120;28;20083;-64
2023/09/06 01:53:13;;;;;;;4.35;1.95;;;;;;;;;;5058358;28;20076;-64
2023/09/06 01:55:40;;;;;;;5.00;1.92;;;;;;;;;;5038957;28;20068;-64
2023/09/06 01:58:08;;;;;;;4.88;1.90;;;;;;;;;;5056644;28;20159;-64
2023/09/06 02:00:37;;;;;;;3.47;1.83;;;;;;;;;;5039204;28;20132;-64
2023/09/06 02:03:03;;;;;;;;;;;;;;;;;;4984126;28;20049;-64
2023/09/06 02:05:31;;;;;;;5.05;1.80;;;;;;;;;;5057263;28;19943;-64
2023/09/06 02:07:58;;;;;;;3.90;1.75;;;;;;;;;;5035533;28;20055;-64
2023/09/06 02:10:25;;;;;;;7.22;1.95;;;;;;;;;;5059146;28;20131;-64
2023/09/06 02:12:52;;;;;;;4.68;2.20;;;;;;;;;;5034456;28;20166;-64
2023/09/06 02:15:20;;;;;;;4.50;1.90;;;;;;;;;;5053918;28;20067;-65
2023/09/06 02:17:47;;;;;;;4.18;2.00;;;;;;;;;;5051561;28;20057;-64
2023/09/06 02:20:19;;;;;;;6.70;2.10;;;;;;;;;;5038775;28;20057;-64
2023/09/06 02:22:48;;;;;;;5.93;2.30;;;;;;;;;;5045200;28;20048;-64
2023/09/06 02:25:16;;;;;;;3.55;1.77;;;;;;;;;;5060085;28;20080;-64
2023/09/06 02:27:43;;;;;;;4.32;1.88;;;;;;;;;;5042890;28;20097;-64
2023/09/06 02:30:10;;;;;;;5.32;2.28;;;;;;;;;;5034267;28;20151;-64
2023/09/06 02:32:38;;;;;;;4.68;2.10;;;;;;;;;;5054560;28;20103;-65
2023/09/06 02:35:06;;;;;;;7.40;2.08;;;;;;;;;;5042311;28;20076;-65
2023/09/06 02:37:33;;;;;;;;;;;;;;;;;;5057619;28;20056;-65
2023/09/06 02:40:00;;;;;;;3.42;1.67;;;;;;;;;;5054392;28;19977;-64
2023/09/06 02:42:27;;;;;;;3.40;1.70;;;;;;;;;;5054018;28;20147;-65
2023/09/06 02:44:54;;;;;;;4.32;2.03;;;;;;;;;;5041978;28;20067;-64
2023/09/06 02:47:28;;;;;;;5.32;2.15;;;;;;;;;;5057879;28;20056;-64
2023/09/06 02:49:57;;;;;;;7.05;2.15;;;;;;;;;;5032203;28;20052;-65
2023/09/06 02:52:29;;;;;;;6.20;2.47;;;;;;;;;;5045690;28;20064;-65
2023/09/06 02:54:57;;;;;;;4.82;1.98;;;;;;;;;;5048765;28;20088;-64
2023/09/06 02:57:23;;;;;;;5.35;2.00;;;;;;;;;;5059181;28;20048;-64
2023/09/06 02:59:51;;;;;;;4.93;2.20;;;;;;;;;;5056864;28;20139;-65
2023/09/06 03:02:19;;;;;;;4.18;2.05;;;;;;;;;;5048778;28;20053;-65
2023/09/06 03:04:46;;;;;;;4.40;1.90;;;;;;;;;;5057976;28;20124;-65
2023/09/06 03:07:15;;;;;;;8.05;2.20;;;;;;;;;;5058251;28;20144;-64
2023/09/06 03:09:44;;;;;;;4.07;2.00;;;;;;;;;;5058140;28;20052;-65
2023/09/06 03:12:12;;;;;;;4.45;2.15;;;;;;;;;;5029491;28;20557;-64
2023/09/06 03:14:43;;;;;;;5.97;2.00;;;;;;;;;;5040356;28;20052;-65
2023/09/06 03:17:10;;;;;;;6.97;2.20;;;;;;;;;;5041341;28;20048;-65
2023/09/06 03:19:40;;;;;;;8.40;2.15;;;;;;;;;;5040164;28;20148;-65
2023/09/06 03:22:09;;;;;;;5.13;2.28;;;;;;;;;;5030674;28;20303;-65
2023/09/06 03:24:40;;;;;;;6.93;2.05;;;;;;;;;;5058588;28;20059;-64
2023/09/06 03:27:07;;;;;;;5.78;2.45;;;;;;;;;;5056992;28;20056;-65
2023/09/06 03:29:36;;;;;;;6.00;2.25;;;;;;;;;;5041956;28;20076;-65
2023/09/06 03:32:04;;;;;;;5.35;2.30;;;;;;;;;;5028466;28;20147;-64
2023/09/06 03:34:31;;;;;;;;;;;;;;;;;;5060841;28;20064;-64
2023/09/06 03:36:59;;;;;;;3.90;1.90;;;;;;;;;;5042431;28;20055;-64
2023/09/06 03:39:28;;;;;;;6.68;2.75;;;;;;;;;;5039702;28;20049;-65
2023/09/06 03:42:00;;;;;;;5.78;2.25;;;;;;;;;;5031098;28;20051;-65
2023/09/06 03:44:27;;;;;;;4.75;2.13;;;;;;;;;;5039889;28;20064;-64
2023/09/06 03:46:56;;;;;;;7.10;2.15;;;;;;;;;;5057411;28;20136;-64
2023/09/06 03:49:23;;;;;;;7.47;2.42;;;;;;;;;;5045387;28;20044;-65
2023/09/06 03:51:51;;;;;;;9.88;2.45;;;;;;;;;;5034811;28;20061;-65
2023/09/06 03:54:18;;;;;;;3.85;1.98;;;;;;;;;;5037525;28;20061;-64
2023/09/06 03:56:45;;;;;;;11.20;2.28;;;;;;;;;;5023485;28;20153;-65
2023/09/06 03:59:13;;;;;;;8.98;2.45;;;;;;;;;;5043753;28;20061;-64
2023/09/06 04:01:43;;;;;;;5.78;2.13;;;;;;;;;;5007741;28;20065;-64
2023/09/06 04:04:12;;;;;;;3.28;1.98;;;;;;;;;;5026696;28;20071;-64
2023/09/06 04:06:43;;;;;;;5.65;2.15;;;;;;;;;;5061699;28;20244;-65
2023/09/06 04:09:13;;;;;;;5.25;2.20;;;;;;;;;;5061749;28;20052;-65
2023/09/06 04:11:40;;;;;;;6.57;2.55;;;;;;;;;;5051809;28;20061;-64
2023/09/06 04:14:07;;;;;;;4.85;2.17;;;;;;;;;;5033841;28;20115;-65
2023/09/06 04:16:37;;;;;;;6.18;2.22;;;;;;;;;;5038685;28;20048;-65
2023/09/06 04:19:05;;;;;;;8.48;2.40;;;;;;;;;;5045046;28;20133;-64
2023/09/06 04:21:31;;;;;;;3.75;2.05;;;;;;;;;;5036535;28;20045;-65
2023/09/06 04:23:58;;;;;;;5.22;2.28;;;;;;;;;;5035241;28;20048;-65
2023/09/06 04:26:25;;;;;;;6.45;2.30;;;;;;;;;;5043074;28;20122;-64
2023/09/06 04:28:52;;;;;;;6.30;2.47;;;;;;;;;;5060231;28;20143;-63
2023/09/06 04:31:18;;;;;;;6.47;2.20;;;;;;;;;;5059570;28;20112;-65
2023/09/06 04:33:47;;;;;;;5.53;2.65;;;;;;;;;;5057378;28;20088;-64
2023/09/06 04:36:13;;;;;;;5.95;2.65;;;;;;;;;;5058596;28;20097;-65
2023/09/06 04:38:40;;;;;;;5.65;2.20;;;;;;;;;;5060556;28;20056;-64
2023/09/06 04:41:07;;;;;;;27.60;12.63;;;;;;;;;;5045025;28;20068;-65
2023/09/06 04:43:33;;;;;;;27.38;14.07;;;;;;;;;;5057715;28;20052;-64
2023/09/06 04:46:00;;;;;;;23.17;9.15;;;;;;;;;;5040198;28;20167;-64
2023/09/06 04:48:27;;;;;;;10.63;5.45;;;;;;;;;;5024028;28;20053;-64
2023/09/06 04:50:56;;;;;;;6.88;3.00;;;;;;;;;;5035074;28;20056;-64
2023/09/06 04:53:23;;;;;;;5.72;2.63;;;;;;;;;;5037131;28;20067;-64
2023/09/06 04:55:52;;;;;;;6.15;2.80;;;;;;;;;;5038604;28;20071;-63
2023/09/06 04:58:19;;;;;;;5.93;2.58;;;;;;;;;;5039421;28;20051;-64
2023/09/06 05:00:47;;;;;;;4.68;2.38;;;;;;;;;;5042244;28;20095;-65
2023/09/06 05:03:17;;;;;;;10.65;2.75;;;;;;;;;;5038197;28;20095;-64
2023/09/06 05:05:45;;;;;;;7.13;2.17;;;;;;;;;;5041451;28;20075;-64
2023/09/06 05:08:13;;;;;;;4.83;2.27;;;;;;;;;;5034232;28;20056;-65
2023/09/06 05:10:40;;;;;;;10.93;2.40;;;;;;;;;;5058921;28;20056;-64
2023/09/06 05:13:08;;;;;;;21.30;9.70;;;;;;;;;;5019111;28;20052;-65
2023/09/06 05:15:35;;;;;;;21.70;10.43;;;;;;;;;;5042417;28;20137;-65
2023/09/06 05:18:02;;;;;;;16.80;7.60;;;;;;;;;;5031493;28;20082;-65
2023/09/06 05:20:33;;;;;;;10.40;5.05;;;;;;;;;;5062123;28;20079;-65
2023/09/06 05:23:01;;;;;;;14.75;4.90;;;;;;;;;;5055582;28;20147;-64
2023/09/06 05:25:29;;;;;;;19.75;3.65;;;;;;;;;;5058812;28;20095;-65
2023/09/06 05:27:59;;;;;;;9.23;3.20;;;;;;;;;;5053466;28;20112;-64
2023/09/06 05:30:26;;;;;;;9.60;2.85;;;;;;;;;;5058926;28;20048;-64
2023/09/06 05:32:54;;;;;;;5.75;2.47;;;;;;;;;;4995124;28;20057;-64
2023/09/06 05:35:20;;;;;;;6.43;2.67;;;;;;;;;;5035826;28;20122;-64
2023/09/06 05:37:49;;;;;;;7.90;3.80;;;;;;;;;;5038436;28;20076;-65
2023/09/06 05:40:22;;;;;;;19.23;7.35;;;;;;;;;;5036070;28;20048;-65
2023/09/06 05:42:50;;;;;;;7.10;3.42;;;;;;;;;;5028199;28;20110;-64
2023/09/06 05:45:19;;;;;;;16.92;7.97;;;;;;;;;;5042164;28;20067;-63
2023/09/06 05:47:46;;;;;;;7.30;3.28;;;;;;;;;;5042753;28;20178;-66
2023/09/06 05:50:13;;;;;;;8.38;2.30;;;;;;;;;;5036497;28;20133;-66
2023/09/06 05:52:40;;;;;;;5.63;2.58;;;;;;;;;;5017832;28;20060;-65
2023/09/06 05:55:08;;;;;;;7.88;2.42;;;;;;;;;;5060747;28;20053;-65
2023/09/06 05:57:36;;;;;;;5.13;2.28;;;;;;;;;;5060008;28;20056;-66
2023/09/06 06:00:12;;;;;;;4.97;2.58;;;;;;;;;;5035455;28;20086;-66
2023/09/06 06:02:39;;;;;;;9.25;2.80;;;;;;;;;;5034005;28;20096;-66
2023/09/06 06:05:06;;;;;;;6.38;2.45;;;;;;;;;;5038736;28;20060;-65
2023/09/06 06:07:33;;;;;;;6.13;2.60;;;;;;;;;;5037147;28;20052;-65
2023/09/06 06:10:00;;;;;;;6.18;2.80;;;;;;;;;;5028157;28;20142;-65
2023/09/06 06:12:27;;;;;;;10.10;2.85;;;;;;;;;;5026597;28;20052;-64
2023/09/06 06:14:53;;;;;;;5.85;2.58;;;;;;;;;;5040276;28;20072;-64
2023/09/06 06:17:24;;;;;;;6.22;2.58;;;;;;;;;;5037453;28;20045;-64
2023/09/06 06:19:51;;;;;;;8.27;2.85;;;;;;;;;;5036773;28;20091;-65
2023/09/06 06:22:18;;;;;;;5.70;2.60;;;;;;;;;;5021382;28;20068;-64
2023/09/06 06:24:45;;;;;;;11.88;2.92;;;;;;;;;;5036400;28;20053;-64
2023/09/06 06:27:11;;;;;;;8.57;2.78;;;;;;;;;;5038785;28;20075;-63
2023/09/06 06:29:38;;;;;;;4.88;2.45;;;;;;;;;;5041908;28;20072;-64
2023/09/06 06:32:06;;;;;;;4.65;2.65;;;;;;;;;;5031108;28;20135;-64
2023/09/06 06:34:43;;;;;;;6.30;2.75;;;;;;;;;;5037066;28;20052;-63
2023/09/06 06:37:10;;;;;;;12.40;5.03;;;;;;;;;;5036217;28;20148;-64
2023/09/06 06:39:37;;;;;;;12.07;3.58;;;;;;;;;;5040066;28;20124;-64
2023/09/06 06:42:04;;;;;;;9.35;4.18;;;;;;;;;;5029099;28;20053;-63
2023/09/06 06:44:31;;;;;;;6.85;2.67;;;;;;;;;;5043568;28;20045;-67
2023/09/06 06:46:57;;;;;;;5.97;2.95;;;;;;;;;;5040449;28;20064;-64
2023/09/06 06:49:24;;;;;;;6.80;2.67;;;;;;;;;;5043022;28;20084;-66
2023/09/06 06:51:52;;;;;;;11.43;2.90;;;;;;;;;;5030968;28;20114;-64
2023/09/06 06:54:22;;;;;;;9.68;2.72;;;;;;;;;;5030704;28;20108;-65
2023/09/06 06:56:48;;;;;;;7.32;2.80;;;;;;;;;;5016713;28;20111;-65
2023/09/06 06:59:17;;;;;;;6.90;3.00;;;;;;;;;;5018434;28;20107;-65
2023/09/06 07:01:43;;;;;;;6.15;2.88;;;;;;;;;;5015616;28;20056;-64
2023/09/06 07:04:11;;;;;;;9.60;3.05;;;;;;;;;;5036318;28;20114;-64
2023/09/06 07:06:40;;;;;;;5.85;2.75;;;;;;;;;;5033837;28;20048;-65
2023/09/06 07:09:10;;;;;;;10.65;3.33;;;;;;;;;;5039691;28;20071;-64
2023/09/06 07:11:38;;;;;;;6.63;3.28;;;;;;;;;;5022329;28;20053;-64
2023/09/06 07:14:05;;;;;;;7.35;3.17;;;;;;;;;;5034066;28;20068;-65
2023/09/06 07:16:33;;;;;;;7.18;3.55;;;;;;;;;;5020462;28;20102;-64
2023/09/06 07:19:00;;;;;;;11.77;3.30;;;;;;;;;;5020945;28;20072;-63
2023/09/06 07:21:31;;;;;;;8.85;2.92;;;;;;;;;;5018621;28;20080;-63
2023/09/06 07:23:57;;;;;;;8.57;3.17;;;;;;;;;;5034369;28;20052;-65
2023/09/06 07:26:25;;;;;;;9.75;3.40;;;;;;;;;;5063887;28;20056;-65
2023/09/06 07:28:52;;;;;;;7.65;3.40;;;;;;;;;;5048582;28;20064;-65
2023/09/06 07:31:19;;;;;;;11.65;6.18;;;;;;;;;;5046171;28;20052;-64
2023/09/06 07:33:46;;;;;;;21.65;12.02;;;;;;;;;;5037879;28;20059;-65
2023/09/06 07:36:14;;;;;;;9.35;5.18;;;;;;;;;;5044207;28;20132;-64
2023/09/06 07:38:42;;;;;;;12.73;3.53;;;;;;;;;;5043220;28;20064;-64
2023/09/06 07:41:09;;;;;;;9.57;3.40;;;;;;;;;;5061485;28;20255;-65
2023/09/06 07:43:39;;;;;;;8.57;3.53;;;;;;;;;;5048184;28;20379;-65
2023/09/06 07:46:09;;;;;;;7.57;3.35;;;;;;;;;;5035851;28;20105;-65
2023/09/06 07:48:38;;;;;;;10.45;3.60;;;;;;;;;;5063275;28;20059;-64
2023/09/06 07:51:05;;;;;;;7.95;3.33;;;;;;;;;;5062750;28;20056;-64
2023/09/06 07:53:33;;;;;;;7.55;3.35;;;;;;;;;;5048060;28;20086;-63
2023/09/06 07:55:59;;;;;;;11.63;3.45;;;;;;;;;;5041648;28;20110;-66
2023/09/06 07:58:26;;;;;;;7.63;3.55;;;;;;;;;;5042346;28;20049;-64
2023/09/06 08:00:55;;;;;;;8.50;3.42;;;;;;;;;;5044487;28;20099;-65
2023/09/06 08:03:22;;;;;;;13.70;3.22;;;;;;;;;;5020145;28;20048;-64
2023/09/06 08:05:51;;;;;;;7.13;3.05;;;;;;;;;;5043733;28;20053;-64
2023/09/06 08:08:18;;;;;;;6.55;3.10;;;;;;;;;;5038903;28;20048;-64
2023/09/06 08:10:52;;;;;;;10.00;3.72;;;;;;;;;;5034290;28;20113;-64
2023/09/06 08:13:19;;;;;;;10.85;3.55;;;;;;;;;;5038118;28;20066;-64
2023/09/06 08:15:47;;;;;;;7.45;2.70;;;;;;;;;;5045641;28;20057;-65
2023/09/06 08:18:16;;;;;;;9.77;3.13;;;;;;;;;;5058128;28;20048;-64
2023/09/06 08:20:42;;;;;;;8.23;3.28;;;;;;;;;;5043237;28;20048;-64
2023/09/06 08:23:09;;;;;;;10.48;3.17;;;;;;;;;;5047602;28;20088;-63
2023/09/06 08:25:36;;;;;;;5.90;3.20;;;;;;;;;;5043133;28;20083;-64
2023/09/06 08:28:02;;;;;;;8.25;2.80;;;;;;;;;;5037143;28;20120;-65
2023/09/06 08:30:29;;;;;;;8.48;2.90;;;;;;;;;;5062509;28;20048;-65
2023/09/06 08:32:56;;;;;;;8.63;2.70;;;;;;;;;;5039666;28;20060;-64
2023/09/06 08:35:25;;;;;;;6.47;2.90;;;;;;;;;;5062560;28;20052;-64
2023/09/06 08:37:52;;;;;;;9.27;5.40;;;;;;;;;;5043582;28;20136;-62
2023/09/06 08:40:21;;;;;;;10.48;5.75;;;;;;;;;;5043059;28;20083;-63
2023/09/06 08:42:49;;;;;;;11.00;3.10;;;;;;;;;;5037364;28;20060;-62
2023/09/06 08:45:21;;;;;;;8.43;2.80;;;;;;;;;;5061404;28;20110;-63
2023/09/06 08:47:49;;;;;;;6.95;2.65;;;;;;;;;;5057807;28;20137;-65
2023/09/06 08:50:16;;;;;;;6.90;2.25;;;;;;;;;;5063650;28;20063;-64
2023/09/06 08:52:45;;;;;;;7.38;2.70;;;;;;;;;;5038778;28;20178;-64
2023/09/06 08:55:15;;;;;;;5.47;2.50;;;;;;;;;;5059532;28;20055;-65
2023/09/06 08:57:44;;;;;;;6.13;2.70;;;;;;;;;;5062636;28;20057;-64
2023/09/06 09:00:11;;;;;;;;;;;;;;;;;;5038850;28;20048;-64
2023/09/06 09:02:40;;;;;;;5.80;2.35;;;;;;;;;;5042028;28;20065;-66
2023/09/06 09:05:10;;;;;;;7.38;2.90;;;;;;;;;;5058912;28;20049;-65
2023/09/06 09:07:37;;;;;;;6.35;3.03;;;;;;;;;;5043111;28;20060;-65
2023/09/06 09:10:08;;;;;;;5.40;2.55;;;;;;;;;;5034429;28;20095;-65
2023/09/06 09:12:38;;;;;;;9.48;2.45;;;;;;;;;;5048126;28;20048;-64
2023/09/06 09:15:08;;;;;;;4.40;2.25;;;;;;;;;;5042488;28;20053;-64
2023/09/06 09:17:39;;;;;;;5.43;2.15;;;;;;;;;;5044268;28;20232;-64
2023/09/06 09:20:09;;;;;;;8.13;2.35;;;;;;;;;;5055205;28;20282;-63
2023/09/06 09:22:37;;;;;;;6.88;2.45;;;;;;;;;;5036361;28;20092;-64
2023/09/06 09:25:14;;;;;;;7.95;2.28;;;;;;;;;;5041882;28;20049;-64
2023/09/06 09:27:45;;;;;;;11.88;2.70;;;;;;;;;;5041626;28;20109;-64
2023/09/06 09:30:14;;;;;;;13.82;6.25;;;;;;;;;;5045932;28;20048;-65
2023/09/06 09:32:41;;;;;;;10.07;4.72;;;;;;;;;;5038921;28;20052;-64
2023/09/06 09:35:10;;;;;;;8.35;3.05;;;;;;;;;;5042316;28;20060;-64
2023/09/06 09:37:39;;;;;;;6.38;2.13;;;;;;;;;;5045473;28;20144;-64
2023/09/06 09:40:21;;;;;;;3.80;1.92;;;;;;;;;;5036664;28;20048;-64
2023/09/06 09:42:55;;;;;;;8.93;2.40;;;;;;;;;;5037586;28;20063;-63
2023/09/06 09:45:22;;;;;;;5.32;2.60;;;;;;;;;;5057143;28;20120;-63
2023/09/06 09:47:50;;;;;;;13.25;5.20;;;;;;;;;;5038994;28;20060;-63
2023/09/06 09:50:17;;;;;;;8.90;2.92;;;;;;;;;;5039278;28;20064;-64
2023/09/06 09:52:45;;;;;;;11.77;3.72;;;;;;;;;;5037427;28;20138;-64
2023/09/06 09:55:15;;;;;;;5.38;2.25;;;;;;;;;;5061826;28;20146;-65
2023/09/06 09:57:44;;;;;;;4.93;2.13;;;;;;;;;;5059232;28;20149;-63
2023/09/06 10:00:12;;;;;;;;;;;;;;;;;;5042121;28;20155;-63
2023/09/06 10:02:39;;;;;;;7.13;1.92;;;;;;;;;;5059316;28;19959;-63
2023/09/06 10:05:08;;;;;;;9.77;2.10;;;;;;;;;;5041188;28;20122;-64
2023/09/06 10:07:36;;;;;;;4.78;2.05;;;;;;;;;;5042187;28;20053;-63
2023/09/06 10:10:05;;;;;;;7.88;2.20;;;;;;;;;;5052848;28;20193;-64
2023/09/06 10:12:35;;;;;;;7.03;2.08;;;;;;;;;;5036943;28;20060;-64
2023/09/06 10:15:08;;;;;;;3.90;1.83;;;;;;;;;;5043475;28;20060;-63
2023/09/06 10:17:35;;;;;;;5.47;2.10;;;;;;;;;;5039784;28;20060;-63
2023/09/06 10:20:02;;;;;;;4.85;2.08;;;;;;;;;;5033837;28;20048;-64
2023/09/06 10:22:32;;;;;;;3.53;1.63;;;;;;;;;;5026404;28;20064;-63
2023/09/06 10:25:09;;;;;;;8.90;2.17;;;;;;;;;;5061115;28;20078;-63
2023/09/06 10:27:45;;;;;;;5.75;2.03;;;;;;;;;;5040796;28;20048;-64
2023/09/06 10:30:17;;;;;;;5.13;2.15;;;;;;;;;;5034311;28;20114;-63
2023/09/06 10:32:44;;;;;;;4.13;2.10;;;;;;;;;;5025854;28;20048;-64
2023/09/06 10:35:25;;;;;;;18.50;2.40;;;;;;;;;;5040677;28;20075;-63
2023/09/06 10:38:04;;;;;;;5.80;2.00;;;;;;;;;;5038178;28;20063;-62
2023/09/06 10:41:04;;;;;;;6.70;2.17;;;;;;;;;;5041367;28;20064;-63
2023/09/06 10:43:43;;;;;;;6.30;2.10;;;;;;;;;;5009606;28;20055;-63
2023/09/06 10:46:28;;;;;;;8.05;2.00;;;;;;;;;;5013705;28;20157;-62
2023/09/06 10:49:14;;;;;;;4.82;1.90;;;;;;;;;;5022527;28;20057;-63
2023/09/06 10:51:59;;;;;;;3.78;1.88;;;;;;;;;;5046996;28;20124;-63
2023/09/06 10:54:34;;;;;;;6.15;2.40;;;;;;;;;;5057772;28;20103;-62
2023/09/06 10:57:03;;;;;;;7.13;3.40;;;;;;;;;;5059111;28;20064;-64
2023/09/06 10:59:31;;;;;;;9.98;3.20;;;;;;;;;;5062228;28;20060;-62
2023/09/06 11:02:26;;;;;;;9.30;2.37;;;;;;;;;;5049475;28;20145;-63
2023/09/06 11:05:09;;;;;;;3.30;1.80;;;;;;;;;;5060930;28;20049;-63
2023/09/06 11:07:41;;;;;;;10.85;2.40;;;;;;;;;;5040436;28;20067;-63
2023/09/06 11:10:09;;;;;;;4.57;1.88;;;;;;;;;;5024061;28;20171;-63
2023/09/06 11:12:36;;;;;;;4.95;1.73;;;;;;;;;;5034112;28;20061;-63
2023/09/06 11:15:03;;;;;;;4.53;1.55;;;;;;;;;;5022059;28;20053;-63
2023/09/06 11:17:31;;;;;;;4.65;1.58;;;;;;;;;;5038103;28;20064;-63
2023/09/06 11:20:12;;;;;;;4.43;1.88;;;;;;;;;;5035069;28;20068;-63
2023/09/06 11:22:39;;;;;;;7.10;1.92;;;;;;;;;;5008173;28;20168;-62
2023/09/06 11:25:16;;;;;;;3.20;1.63;;;;;;;;;;5039794;28;20060;-62
2023/09/06 11:27:43;;;;;;;3.88;1.80;;;;;;;;;;5039076;28;20140;-62
2023/09/06 11:30:15;;;;;;;3.92;1.70;;;;;;;;;;5034145;28;20067;-63
2023/09/06 11:32:45;;;;;;;4.28;2.10;;;;;;;;;;5035228;28;20098;-62
2023/09/06 11:35:14;;;;;;;9.68;2.25;;;;;;;;;;5045949;28;20040;-61
2023/09/06 11:37:49;;;;;;;7.22;2.00;;;;;;;;;;5060816;28;20068;-63
2023/09/06 11:40:18;;;;;;;6.88;2.05;;;;;;;;;;5053355;28;20064;-63
2023/09/06 11:42:48;;;;;;;7.63;2.30;;;;;;;;;;5035950;28;20053;-64
2023/09/06 11:45:19;;;;;;;4.93;2.08;;;;;;;;;;5041178;28;20057;-63
2023/09/06 11:47:57;;;;;;;7.13;2.50;;;;;;;;;;5022569;28;20041;-63
2023/09/06 11:50:24;;;;;;;4.38;1.90;;;;;;;;;;5024206;28;20065;-63
2023/09/06 11:52:53;;;;;;;6.60;2.25;;;;;;;;;;5033013;28;20056;-65
2023/09/06 11:55:21;;;;;;;6.18;2.00;;;;;;;;;;5043515;28;20067;-64
2023/09/06 11:57:56;;;;;;;7.85;2.08;;;;;;;;;;5036204;28;20099;-63
2023/09/06 12:00:27;;;;;;;7.88;2.28;;;;;;;;;;5037096;28;20247;-64
2023/09/06 12:03:12;;;;;;;6.55;2.05;;;;;;;;;;5037736;28;20059;-61
2023/09/06 12:05:42;;;;;;;4.68;1.92;;;;;;;;;;5056559;28;20053;-63
2023/09/06 12:08:11;;;;;;;6.00;2.70;;;;;;;;;;5033807;28;20326;-63
2023/09/06 12:10:38;;;;;;;6.95;2.00;;;;;;;;;;5060287;28;20360;-62
2023/09/06 12:13:09;;;;;;;12.57;2.85;;;;;;;;;;5002753;28;20060;-63
2023/09/06 12:15:36;;;;;;;7.82;2.28;;;;;;;;;;5042130;28;20057;-63
2023/09/06 12:18:06;;;;;;;9.05;2.85;;;;;;;;;;5035197;28;20158;-64
2023/09/06 12:20:34;;;;;;;5.50;2.03;;;;;;;;;;5023102;28;20052;-64
2023/09/06 12:23:04;;;;;;;8.57;2.17;;;;;;;;;;5021579;28;20133;-63
2023/09/06 12:25:31;;;;;;;6.30;2.40;;;;;;;;;;5058319;28;20131;-64
2023/09/06 12:27:58;;;;;;;6.20;2.15;;;;;;;;;;5056976;28;20057;-64
2023/09/06 12:30:25;;;;;;;8.77;2.50;;;;;;;;;;5045124;28;20052;-63
2023/09/06 12:32:51;;;;;;;13.48;2.20;;;;;;;;;;5039170;28;20053;-63
2023/09/06 12:35:20;;;;;;;5.88;2.30;;;;;;;;;;5063201;28;20078;-64
2023/09/06 12:37:48;;;;;;;;;;;;;;;;;;5060855;28;20059;-62
2023/09/06 12:40:14;;;;;;;;;;;;;;;;;;5044882;28;19924;-64
2023/09/06 12:42:42;;;;;;;5.07;2.53;;;;;;;;;;5044449;28;19924;-64
2023/09/06 12:45:11;;;;;;;4.90;2.28;;;;;;;;;;5064526;28;20068;-65
2023/09/06 12:47:38;;;;;;;12.60;2.60;;;;;;;;;;5060469;28;20086;-64
2023/09/06 12:50:08;;;;;;;7.03;2.20;;;;;;;;;;5039723;28;20056;-62
2023/09/06 12:52:36;;;;;;;5.57;2.28;;;;;;;;;;5040312;28;20109;-66
2023/09/06 12:55:04;;;;;;;8.18;2.45;;;;;;;;;;5054018;28;20063;-65
2023/09/06 12:57:31;;;;;;;7.63;2.33;;;;;;;;;;5059049;28;20048;-63
2023/09/06 12:59:58;;;;;;;7.95;2.58;;;;;;;;;;5053769;28;20063;-66
2023/09/06 13:02:27;;;;;;;11.47;2.47;;;;;;;;;;5039488;28;20048;-63
2023/09/06 13:04:54;;;;;;;6.45;2.05;;;;;;;;;;5048669;28;20056;-64
2023/09/06 13:07:20;;;;;;;8.20;2.33;;;;;;;;;;5044365;28;20071;-66
2023/09/06 13:09:49;;;;;;;8.57;2.17;;;;;;;;;;5040137;28;20053;-67
2023/09/06 13:12:16;;;;;;;5.43;2.45;;;;;;;;;;5013411;28;20052;-64
2023/09/06 13:14:43;;;;;;;8.00;2.70;;;;;;;;;;5043025;28;20120;-65
2023/09/06 13:17:11;;;;;;;8.35;2.25;;;;;;;;;;5041988;28;20056;-65
2023/09/06 13:19:41;;;;;;;8.40;2.50;;;;;;;;;;5060225;28;20147;-64
2023/09/06 13:22:08;;;;;;;4.88;2.00;;;;;;;;;;5049993;28;20065;-65
2023/09/06 13:24:35;;;;;;;8.25;2.50;;;;;;;;;;5060582;28;20234;-63
2023/09/06 13:27:04;;;;;;;10.68;2.47;;;;;;;;;;5040907;28;20074;-64
2023/09/06 13:29:31;;;;;;;8.07;2.50;;;;;;;;;;5042231;28;20060;-62
2023/09/06 13:31:59;;;;;;;5.75;2.42;;;;;;;;;;5031558;28;20052;-64
2023/09/06 13:34:25;;;;;;;;;;;;;;;;;;5061344;28;20056;-64
2023/09/06 13:36:52;;;;;;;5.40;2.15;;;;;;;;;;5059575;28;19960;-65
2023/09/06 13:39:21;;;;;;;11.43;2.50;;;;;;;;;;5043136;28;20168;-66
2023/09/06 13:41:49;;;;;;;9.60;2.92;;;;;;;;;;5013755;28;20051;-64
2023/09/06 13:44:19;;;;;;;6.53;2.40;;;;;;;;;;5033659;28;20099;-64
2023/09/06 13:46:47;;;;;;;5.32;2.42;;;;;;;;;;5057660;28;20057;-66
2023/09/06 13:49:14;;;;;;;4.72;2.15;;;;;;;;;;5042758;28;20092;-62
2023/09/06 13:51:41;;;;;;;5.97;2.33;;;;;;;;;;5061188;28;20063;-63
2023/09/06 13:54:07;;;;;;;7.15;2.50;;;;;;;;;;5042501;28;20429;-64
2023/09/06 13:56:34;;;;;;;8.32;2.50;;;;;;;;;;5062295;28;20147;-63
2023/09/06 13:59:01;;;;;;;9.23;2.28;;;;;;;;;;5061700;28;20086;-65
2023/09/06 14:01:29;;;;;;;6.60;2.60;;;;;;;;;;5047231;28;20053;-66
2023/09/06 14:03:58;;;;;;;18.65;8.77;;;;;;;;;;4990349;28;20061;-63
2023/09/06 14:06:25;;;;;;;9.80;4.00;;;;;;;;;;5038934;28;20134;-65
2023/09/06 14:08:53;;;;;;;5.57;2.40;;;;;;;;;;5056223;28;20057;-65
2023/09/06 14:11:19;;;;;;;;;;;;;;;;;;5025301;28;20296;-61
2023/09/06 14:13:46;;;;;;;4.80;2.10;;;;;;;;;;5020104;28;19971;-65
2023/09/06 14:16:13;;;;;;;5.88;2.13;;;;;;;;;;5046112;28;20110;-65
2023/09/06 14:18:45;;;;;;;7.15;2.03;;;;;;;;;;5061111;28;20064;-64
2023/09/06 14:21:19;;;;;;;7.03;2.00;;;;;;;;;;5061548;28;20058;-68
2023/09/06 14:23:45;;;;;;;5.00;2.15;;;;;;;;;;5036339;28;20052;-61
2023/09/06 14:26:12;;;;;;;8.95;2.10;;;;;;;;;;5057653;28;20086;-65
2023/09/06 14:28:42;;;;;;;5.20;2.33;;;;;;;;;;5041344;28;20052;-62
2023/09/06 14:31:10;;;;;;;4.82;2.08;;;;;;;;;;5061139;28;20067;-71
2023/09/06 14:33:36;;;;;;;;;;;;;;;;;;5024940;28;20098;-67
2023/09/06 14:36:05;;;;;;;10.25;4.45;;;;;;;;;;5031277;28;19959;-62
2023/09/06 14:38:32;;;;;;;8.50;4.93;;;;;;;;;;5042883;28;20049;-64
2023/09/06 14:40:58;;;;;;;4.30;2.05;;;;;;;;;;5040153;28;20112;-65
2023/09/06 14:43:25;;;;;;;5.90;1.95;;;;;;;;;;5004389;28;20056;-69
2023/09/06 14:45:52;;;;;;;4.43;1.93;;;;;;;;;;5030788;28;20060;-68
2023/09/06 14:48:19;;;;;;;5.82;2.10;;;;;;;;;;5039917;28;20057;-68
2023/09/06 14:50:45;;;;;;;5.50;2.20;;;;;;;;;;5021592;28;20076;-67
2023/09/06 14:53:13;;;;;;;5.75;1.95;;;;;;;;;;5040490;28;20120;-66